Marigot, St. Martin

12:09 PM AST on July 23, 2016 (GMT -0400)
| | Change Station

Elev -9999 ft 0.00 °N, 0.00 °E | Updated

Rain
Rain
80 °F
Feels Like 85 °F
N
13
Wind Variable Wind from East
Gusts mph

Today
High -- | Low -- °F
--% Chance of Precip.
Yesterday
High -- | Low -- °F
Precip. -- in
Pressure 30.01 in
Visibility 6.2 miles
Clouds Scattered Clouds 2100 ft
Heat Index 85 °F
Dew Point 73 °F
Humidity 80%
Rainfall --
Snow Depth Not available.
5:47 AM 6:49 PM
Waning Gibbous, 84% visible
METAR TQPF 231600Z 10015KT 9999 SCT021 32/23 Q1016
Pressure 30.01 in
Visibility 6.2 miles
Clouds Scattered Clouds 2100 ft
Heat Index 85 °F
Dew Point 73 °F
Humidity 80%
Rainfall --
Snow Depth Not available.
5:47 AM 6:49 PM
Waning Gibbous, 84% visible
METAR TQPF 231600Z 10015KT 9999 SCT021 32/23 Q1016

10-Day Weather Forecast

No radar image for this location.
×

Almanac

Astronomy

Jul. 23, 2016 Rise Set
Actual Time
Civil Twilight
Nautical Twilight
Astronomical Twilight
Moon
Length of Visible Light
Length of Day
Tomorrow will be .
, % of the Moon is Illuminated

Today's Extremes

Country Highs Country Lows

Community

WunderPhotos

Upload Photos

1,926,857 photos uploaded!

WunderBlog® & News

Nearby

Air Quality

  Air Quality AQ Index Pollutant
Not available.

Snow Depth

Station Depth Elevation

Earthquake Activity

City Distance Mag. Time & Date
Minimum magnitude displayed is 2.5.

Coastal Water Temperatures

Place Temperature

Stations

Nearby Weather Stations

Station Location Temp. Windchill Dew Point Humidity Wind Precip. Elev Updated Type